Portada
METAR-TAF:

METAR-TAF

Aeroports :

Hawkins Field

Jackson, Mississipí, Estats Units d'Amèrica

latitud: 32-20-05N, longitud: 090-13-21W, altitud: 104 m

Observació

L'informe es va fer fa 57 minuts, a les 19:53 UTC
Vent 8 kt del Oest/Sud-Oest
Temperatura 33°C
Humitat 56%
Pressió 1017 hPa
Visibilitat: 16.1 km
Núvols disperses a una alçada de 4600 ft
Núvols disperses a una alçada de 5500 ft

METAR: KHKS 191953Z 24008KT 10SM SCT046 SCT055 33/23 A3004 RMK AO2 SLP165 T03330233

Hora: 15:50 (20:50 UTC)

Pronòstic

L'informe es va fer fa 3 hores i 24 minuts, a les 17:26 UTC
Pronòstic vàlid del 19 a les 18 UTC al 20 a les 18 UTC
Vent 5 kt del Oest/Sud-Oest
Visibilitat: 10 km
Cel ennuvolat a una alçada de 5000 ft
xàfecs en les proximitats
A partir de les 20 a les 0000 UTC
Vent 4 kt del Sud
Visibilitat: 10 km
Núvols disperses a una alçada de 25000 ft

TAF: KHKS 191726Z 1918/2018 25005KT P6SM VCSH BKN050 FM200000 17004KT P6SM SCT250

Observacions i pronòstics meteorològics de més de 4000 aeroports (METAR i TAF).

Les estacions disponibles són els punts grocs i vermells al mapa.

Posi el ratolí al punt desitjat per veure el nom de l'estació.

Feu clic per veure les observacions i els pronòstics meteorològics.

Per canviar el mapa: feu clic els botons verds amb una creu de color negre per apropar; al botó verd amb un guió per allunyar la imatge; o en les fletxes verdes per a mapes adjacents.


METAR-TAF: